sensor_id;sensor_type;location;lat;lon;timestamp;pressure;altitude;pressure_sealevel;temperature;humidity
31357;BME280;60001;48.404;11.738;2023-04-01T00:00:58;95011.06;;;9.08;67.57
31357;BME280;60001;48.404;11.738;2023-04-01T00:02:30;95012.41;;;9.05;67.94
31357;BME280;60001;48.404;11.738;2023-04-01T00:04:02;95009.22;;;9.09;67.75
31357;BME280;60001;48.404;11.738;2023-04-01T00:05:34;95003.94;;;9.09;68.17
31357;BME280;60001;48.404;11.738;2023-04-01T00:07:05;95013.97;;;9.06;68.00
31357;BME280;60001;48.404;11.738;2023-04-01T00:08:37;95009.81;;;8.95;68.20
31357;BME280;60001;48.404;11.738;2023-04-01T00:10:11;95005.03;;;9.02;68.34
31357;BME280;60001;48.404;11.738;2023-04-01T00:11:43;95006.66;;;8.98;67.41
31357;BME280;60001;48.404;11.738;2023-04-01T00:13:16;95011.63;;;9.05;67.64
31357;BME280;60001;48.404;11.738;2023-04-01T00:14:47;95020.06;;;9.02;68.41
31357;BME280;60001;48.404;11.738;2023-04-01T00:16:19;95016.88;;;9.05;67.70
31357;BME280;60001;48.404;11.738;2023-04-01T00:17:52;95016.09;;;9.04;67.84
31357;BME280;60001;48.404;11.738;2023-04-01T00:19:24;95014.50;;;9.03;68.15
31357;BME280;60001;48.404;11.738;2023-04-01T00:20:56;95025.59;;;9.00;68.34
31357;BME280;60001;48.404;11.738;2023-04-01T00:22:28;95019.78;;;9.03;67.77
31357;BME280;60001;48.404;11.738;2023-04-01T00:24:00;95020.31;;;9.00;68.31
31357;BME280;60001;48.404;11.738;2023-04-01T00:25:32;94998.81;;;8.88;68.13
31357;BME280;60001;48.404;11.738;2023-04-01T00:27:03;95013.78;;;8.98;68.31
31357;BME280;60001;48.404;11.738;2023-04-01T00:28:34;95019.56;;;8.95;68.52
31357;BME280;60001;48.404;11.738;2023-04-01T00:30:08;95019.56;;;8.95;68.04
31357;BME280;60001;48.404;11.738;2023-04-01T00:31:39;95014.06;;;8.91;68.83
31357;BME280;60001;48.404;11.738;2023-04-01T00:33:12;95018.06;;;8.84;69.12
31357;BME280;60001;48.404;11.738;2023-04-01T00:34:43;95013.59;;;8.79;69.23
31357;BME280;60001;48.404;11.738;2023-04-01T00:36:17;95015.19;;;8.80;68.57
31357;BME280;60001;48.404;11.738;2023-04-01T00:37:50;95011.75;;;8.79;69.10
31357;BME280;60001;48.404;11.738;2023-04-01T00:39:22;95015.19;;;8.80;69.24
31357;BME280;60001;48.404;11.738;2023-04-01T00:40:57;95016.53;;;8.67;69.04
31357;BME280;60001;48.404;11.738;2023-04-01T00:42:29;95019.94;;;8.73;69.52
31357;BME280;60001;48.404;11.738;2023-04-01T00:44:17;95017.31;;;8.78;69.19
31357;BME280;60001;48.404;11.738;2023-04-01T00:45:50;95013.63;;;8.74;69.05
31357;BME280;60001;48.404;11.738;2023-04-01T00:47:24;95015.19;;;8.80;69.27
31357;BME280;60001;48.404;11.738;2023-04-01T00:48:59;95016.47;;;8.83;69.59
31357;BME280;60001;48.404;11.738;2023-04-01T00:50:34;95016.44;;;8.88;68.73
31357;BME280;60001;48.404;11.738;2023-04-01T00:52:08;95018.28;;;8.87;68.64
31357;BME280;60001;48.404;11.738;2023-04-01T00:53:46;95018.84;;;8.84;68.82
31357;BME280;60001;48.404;11.738;2023-04-01T00:55:21;95014.09;;;8.86;68.81
31357;BME280;60001;48.404;11.738;2023-04-01T00:56:57;95021.72;;;8.83;69.50
31357;BME280;60001;48.404;11.738;2023-04-01T00:58:35;95023.56;;;8.87;69.24
31357;BME280;60001;48.404;11.738;2023-04-01T01:00:11;95012.50;;;8.90;69.68
31357;BME280;60001;48.404;11.738;2023-04-01T01:01:43;95019.34;;;8.86;69.39
31357;BME280;60001;48.404;11.738;2023-04-01T01:03:15;95007.50;;;8.89;69.21
31357;BME280;60001;48.404;11.738;2023-04-01T01:04:47;95011.44;;;8.91;69.96
31357;BME280;60001;48.404;11.738;2023-04-01T01:06:38;95011.44;;;8.91;69.95
31357;BME280;60001;48.404;11.738;2023-04-01T01:08:17;95011.94;;;8.93;70.08
31357;BME280;60001;48.404;11.738;2023-04-01T01:10:02;95009.31;;;8.93;69.72
31357;BME280;60001;48.404;11.738;2023-04-01T01:11:40;95000.66;;;8.88;69.36
31357;BME280;60001;48.404;11.738;2023-04-01T01:13:18;94999.34;;;8.90;69.69
31357;BME280;60001;48.404;11.738;2023-04-01T01:15:02;95007.75;;;8.92;69.43
31357;BME280;60001;48.404;11.738;2023-04-01T01:16:43;95000.91;;;8.91;69.48
31357;BME280;60001;48.404;11.738;2023-04-01T01:18:23;95004.31;;;8.92;69.87
31357;BME280;60001;48.404;11.738;2023-04-01T01:20:36;94995.66;;;8.91;69.58
31357;BME280;60001;48.404;11.738;2023-04-01T01:22:33;95007.25;;;8.90;69.87
31357;BME280;60001;48.404;11.738;2023-04-01T01:26:25;95003.31;;;8.83;69.40
31357;BME280;60001;48.404;11.738;2023-04-01T01:28:20;94989.13;;;8.84;69.16
31357;BME280;60001;48.404;11.738;2023-04-01T01:30:21;94989.13;;;8.78;69.25
31357;BME280;60001;48.404;11.738;2023-04-01T01:32:05;94999.63;;;8.84;69.12
31357;BME280;60001;48.404;11.738;2023-04-01T01:34:01;94994.59;;;8.87;69.13
31357;BME280;60001;48.404;11.738;2023-04-01T01:35:43;94996.44;;;8.92;69.78
31357;BME280;60001;48.404;11.738;2023-04-01T01:37:19;94996.22;;;8.83;69.24
31357;BME280;60001;48.404;11.738;2023-04-01T01:38:53;95000.94;;;8.81;69.19
31357;BME280;60001;48.404;11.738;2023-04-01T01:40:28;94988.84;;;8.85;69.42
31357;BME280;60001;48.404;11.738;2023-04-01T01:42:04;94984.94;;;8.72;69.99
31357;BME280;60001;48.404;11.738;2023-04-01T01:43:41;94997.53;;;8.81;70.05
31357;BME280;60001;48.404;11.738;2023-04-01T01:45:18;94988.38;;;8.73;69.23
31357;BME280;60001;48.404;11.738;2023-04-01T01:46:51;94972.91;;;8.61;68.96
31357;BME280;60001;48.404;11.738;2023-04-01T01:48:25;94990.22;;;8.72;69.44
31357;BME280;60001;48.404;11.738;2023-04-01T01:49:59;94992.34;;;8.65;69.67
31357;BME280;60001;48.404;11.738;2023-04-01T01:51:34;94989.72;;;8.65;69.72
31357;BME280;60001;48.404;11.738;2023-04-01T01:53:08;94990.50;;;8.66;69.96
31357;BME280;60001;48.404;11.738;2023-04-01T01:54:47;94977.34;;;8.66;70.23
31357;BME280;60001;48.404;11.738;2023-04-01T01:56:23;94989.22;;;8.63;70.57
31357;BME280;60001;48.404;11.738;2023-04-01T01:58:00;94972.94;;;8.56;70.11
31357;BME280;60001;48.404;11.738;2023-04-01T01:59:38;94979.47;;;8.64;70.31
31357;BME280;60001;48.404;11.738;2023-04-01T02:01:14;94989.44;;;8.67;69.87
31357;BME280;60001;48.404;11.738;2023-04-01T02:02:48;94986.84;;;8.62;69.97
31357;BME280;60001;48.404;11.738;2023-04-01T02:04:22;94987.09;;;8.65;70.63
31357;BME280;60001;48.404;11.738;2023-04-01T02:05:57;94974.47;;;8.62;70.42
31357;BME280;60001;48.404;11.738;2023-04-01T02:07:35;94983.41;;;8.66;70.41
31357;BME280;60001;48.404;11.738;2023-04-01T02:09:10;94976.00;;;8.68;69.73
31357;BME280;60001;48.404;11.738;2023-04-01T02:10:48;94959.50;;;8.58;70.34
31357;BME280;60001;48.404;11.738;2023-04-01T02:12:28;94978.44;;;8.60;70.03
31357;BME280;60001;48.404;11.738;2023-04-01T02:14:05;94983.13;;;8.68;70.08
31357;BME280;60001;48.404;11.738;2023-04-01T02:15:44;94984.19;;;8.62;69.99
31357;BME280;60001;48.404;11.738;2023-04-01T02:17:19;94986.84;;;8.62;70.47
31357;BME280;60001;48.404;11.738;2023-04-01T02:18:53;94998.50;;;8.45;70.39
31357;BME280;60001;48.404;11.738;2023-04-01T02:20:29;94984.00;;;8.53;70.67
31357;BME280;60001;48.404;11.738;2023-04-01T02:22:03;94997.13;;;8.58;70.53
31357;BME280;60001;48.404;11.738;2023-04-01T02:23:38;94982.13;;;8.59;70.71
31357;BME280;60001;48.404;11.738;2023-04-01T02:25:14;94987.41;;;8.54;71.09
31357;BME280;60001;48.404;11.738;2023-04-01T02:26:47;94985.03;;;8.57;70.79
31357;BME280;60001;48.404;11.738;2023-04-01T02:28:20;94991.09;;;8.58;70.30
31357;BME280;60001;48.404;11.738;2023-04-01T02:29:53;94996.09;;;8.54;70.42
31357;BME280;60001;48.404;11.738;2023-04-01T02:31:25;94989.75;;;8.55;70.84
31357;BME280;60001;48.404;11.738;2023-04-01T02:32:58;95000.56;;;8.54;70.80
31357;BME280;60001;48.404;11.738;2023-04-01T02:34:31;94998.47;;;8.50;70.76
31357;BME280;60001;48.404;11.738;2023-04-01T02:36:03;95000.59;;;8.48;70.55
31357;BME280;60001;48.404;11.738;2023-04-01T02:37:35;95005.81;;;8.54;71.09
31357;BME280;60001;48.404;11.738;2023-04-01T02:39:08;95007.69;;;8.48;70.92
31357;BME280;60001;48.404;11.738;2023-04-01T02:40:43;95006.91;;;8.47;70.65
31357;BME280;60001;48.404;11.738;2023-04-01T02:42:15;95006.09;;;8.47;70.96
31357;BME280;60001;48.404;11.738;2023-04-01T02:43:47;95007.97;;;8.46;70.90
31357;BME280;60001;48.404;11.738;2023-04-01T02:45:18;95013.78;;;8.43;70.67
31357;BME280;60001;48.404;11.738;2023-04-01T02:46:49;95012.44;;;8.41;71.17
31357;BME280;60001;48.404;11.738;2023-04-01T02:48:21;95005.88;;;8.33;71.02
31357;BME280;60001;48.404;11.738;2023-04-01T02:49:53;95013.50;;;8.40;70.97
31357;BME280;60001;48.404;11.738;2023-04-01T02:51:28;95008.25;;;8.35;71.67
31357;BME280;60001;48.404;11.738;2023-04-01T02:53:00;95018.75;;;8.40;71.09
31357;BME280;60001;48.404;11.738;2023-04-01T02:54:34;95011.91;;;8.44;71.17
31357;BME280;60001;48.404;11.738;2023-04-01T02:56:06;95008.78;;;8.32;71.33
31357;BME280;60001;48.404;11.738;2023-04-01T02:57:38;95011.66;;;8.40;71.40
31357;BME280;60001;48.404;11.738;2023-04-01T02:59:10;95007.44;;;8.44;71.26
31357;BME280;60001;48.404;11.738;2023-04-01T03:00:42;95016.13;;;8.45;71.61
31357;BME280;60001;48.404;11.738;2023-04-01T03:02:15;95016.91;;;8.40;70.80
31357;BME280;60001;48.404;11.738;2023-04-01T03:03:47;95017.47;;;8.37;71.17
31357;BME280;60001;48.404;11.738;2023-04-01T03:05:17;95019.03;;;8.38;71.48
31357;BME280;60001;48.404;11.738;2023-04-01T03:06:50;95022.44;;;8.44;70.83
31357;BME280;60001;48.404;11.738;2023-04-01T03:08:21;95022.69;;;8.47;70.75
31357;BME280;60001;48.404;11.738;2023-04-01T03:09:55;95021.91;;;8.47;70.41
31357;BME280;60001;48.404;11.738;2023-04-01T03:11:26;95015.63;;;8.43;70.42
31357;BME280;60001;48.404;11.738;2023-04-01T03:12:58;95024.03;;;8.40;70.96
31357;BME280;60001;48.404;11.738;2023-04-01T03:14:30;95019.31;;;8.37;70.74
31357;BME280;60001;48.404;11.738;2023-04-01T03:16:02;95036.38;;;8.39;71.37
31357;BME280;60001;48.404;11.738;2023-04-01T03:17:32;95023.78;;;8.31;71.06
31357;BME280;60001;48.404;11.738;2023-04-01T03:19:04;95024.31;;;8.28;71.29
31357;BME280;60001;48.404;11.738;2023-04-01T03:20:36;95027.97;;;8.27;71.75
31357;BME280;60001;48.404;11.738;2023-04-01T03:22:09;95007.75;;;8.22;71.35
31357;BME280;60001;48.404;11.738;2023-04-01T03:23:42;95033.50;;;8.20;71.18
31357;BME280;60001;48.404;11.738;2023-04-01T03:25:15;95030.59;;;8.27;71.92
31357;BME280;60001;48.404;11.738;2023-04-01T03:26:47;95031.38;;;8.33;71.59
31357;BME280;60001;48.404;11.738;2023-04-01T03:28:18;95038.22;;;8.34;71.44
31357;BME280;60001;48.404;11.738;2023-04-01T03:29:49;95040.38;;;8.16;71.53
31357;BME280;60001;48.404;11.738;2023-04-01T03:31:22;95038.50;;;8.27;71.67
31357;BME280;60001;48.404;11.738;2023-04-01T03:32:54;95033.78;;;8.29;71.66
31357;BME280;60001;48.404;11.738;2023-04-01T03:34:25;95030.31;;;8.34;71.41
31357;BME280;60001;48.404;11.738;2023-04-01T03:35:57;95038.78;;;8.20;71.67
31357;BME280;60001;48.404;11.738;2023-04-01T03:37:28;95036.69;;;8.28;71.60
31357;BME280;60001;48.404;11.738;2023-04-01T03:39:02;95048.00;;;8.23;71.44
31357;BME280;60001;48.404;11.738;2023-04-01T03:40:35;95041.66;;;8.24;71.47
31357;BME280;60001;48.404;11.738;2023-04-01T03:42:08;95048.22;;;8.27;71.94
31357;BME280;60001;48.404;11.738;2023-04-01T03:43:40;95048.78;;;8.18;71.65
31357;BME280;60001;48.404;11.738;2023-04-01T03:45:12;95053.00;;;8.14;71.93
31357;BME280;60001;48.404;11.738;2023-04-01T03:46:44;95058.00;;;8.16;71.48
31357;BME280;60001;48.404;11.738;2023-04-01T03:48:15;95043.53;;;8.13;71.49
31357;BME280;60001;48.404;11.738;2023-04-01T03:49:47;95055.38;;;8.11;71.54
31357;BME280;60001;48.404;11.738;2023-04-01T03:51:19;95054.34;;;8.07;71.53
31357;BME280;60001;48.404;11.738;2023-04-01T03:52:51;95063.78;;;8.13;72.37
31357;BME280;60001;48.404;11.738;2023-04-01T03:54:23;95060.91;;;8.04;72.22
31357;BME280;60001;48.404;11.738;2023-04-01T03:55:56;95058.28;;;8.14;71.92
31357;BME280;60001;48.404;11.738;2023-04-01T03:57:28;95067.19;;;8.18;71.73
31357;BME280;60001;48.404;11.738;2023-04-01T03:59:03;95061.69;;;8.10;71.62
31357;BME280;60001;48.404;11.738;2023-04-01T04:00:35;95065.09;;;8.10;71.20
31357;BME280;60001;48.404;11.738;2023-04-01T04:02:07;95069.03;;;8.13;70.91
31357;BME280;60001;48.404;11.738;2023-04-01T04:03:39;95057.47;;;8.04;71.58
31357;BME280;60001;48.404;11.738;2023-04-01T04:05:11;95075.66;;;8.00;71.77
31357;BME280;60001;48.404;11.738;2023-04-01T04:06:43;95071.94;;;8.06;71.13
31357;BME280;60001;48.404;11.738;2023-04-01T04:08:15;95069.31;;;8.11;71.85
31357;BME280;60001;48.404;11.738;2023-04-01T04:09:47;95076.94;;;8.08;71.13
31357;BME280;60001;48.404;11.738;2023-04-01T04:11:21;95059.31;;;7.98;71.52
31357;BME280;60001;48.404;11.738;2023-04-01T04:12:53;95071.94;;;7.96;71.41
31357;BME280;60001;48.404;11.738;2023-04-01T04:14:25;95069.84;;;8.03;71.57
31357;BME280;60001;48.404;11.738;2023-04-01T04:15:56;95078.00;;;8.07;71.39
31357;BME280;60001;48.404;11.738;2023-04-01T04:17:29;95072.19;;;8.10;72.03
31357;BME280;60001;48.404;11.738;2023-04-01T04:19:01;95076.91;;;8.18;71.52
31357;BME280;60001;48.404;11.738;2023-04-01T04:20:32;95077.44;;;8.20;71.19
31357;BME280;60001;48.404;11.738;2023-04-01T04:22:05;95081.13;;;8.19;71.38
31357;BME280;60001;48.404;11.738;2023-04-01T04:23:37;95082.72;;;8.15;71.01
31357;BME280;60001;48.404;11.738;2023-04-01T04:25:08;95077.47;;;8.15;71.11
31357;BME280;60001;48.404;11.738;2023-04-01T04:26:42;95076.69;;;8.14;71.30
31357;BME280;60001;48.404;11.738;2023-04-01T04:28:13;95077.47;;;8.15;71.10
31357;BME280;60001;48.404;11.738;2023-04-01T04:29:44;95078.25;;;8.15;70.78
31357;BME280;60001;48.404;11.738;2023-04-01T04:31:19;95081.66;;;8.16;71.36
31357;BME280;60001;48.404;11.738;2023-04-01T04:32:51;95073.25;;;8.09;70.98
31357;BME280;60001;48.404;11.738;2023-04-01T04:34:22;95073.00;;;8.05;71.22
31357;BME280;60001;48.404;11.738;2023-04-01T04:35:56;95070.38;;;8.00;71.18
31357;BME280;60001;48.404;11.738;2023-04-01T04:37:27;95058.31;;;7.94;71.68
31357;BME280;60001;48.404;11.738;2023-04-01T04:38:59;95077.47;;;7.94;71.54
31357;BME280;60001;48.404;11.738;2023-04-01T04:40:32;95076.69;;;7.89;72.03
31357;BME280;60001;48.404;11.738;2023-04-01T04:42:05;95073.28;;;7.88;72.09
31357;BME280;60001;48.404;11.738;2023-04-01T04:43:37;95079.03;;;7.85;72.21
31357;BME280;60001;48.404;11.738;2023-04-01T04:45:09;95074.06;;;7.84;71.93
31357;BME280;60001;48.404;11.738;2023-04-01T04:46:42;95083.78;;;7.88;72.65
31357;BME280;60001;48.404;11.738;2023-04-01T04:48:15;95080.91;;;7.80;72.54
31357;BME280;60001;48.404;11.738;2023-04-01T04:49:48;95072.50;;;7.88;72.39
31357;BME280;60001;48.404;11.738;2023-04-01T04:51:21;95080.09;;;7.94;72.20
31357;BME280;60001;48.404;11.738;2023-04-01T04:52:53;95081.41;;;7.97;72.57
31357;BME280;60001;48.404;11.738;2023-04-01T04:54:24;95081.16;;;7.93;72.31
31357;BME280;60001;48.404;11.738;2023-04-01T04:55:56;95094.28;;;7.98;72.39
31357;BME280;60001;48.404;11.738;2023-04-01T04:57:29;95076.69;;;7.94;72.75
31357;BME280;60001;48.404;11.738;2023-04-01T04:59:00;95089.56;;;8.01;72.98
31357;BME280;60001;48.404;11.738;2023-04-01T05:00:32;95089.03;;;8.04;72.92
31357;BME280;60001;48.404;11.738;2023-04-01T05:02:04;95088.50;;;8.02;72.79
31357;BME280;60001;48.404;11.738;2023-04-01T05:03:36;95093.78;;;8.07;72.85
31357;BME280;60001;48.404;11.738;2023-04-01T05:05:08;95092.72;;;8.08;73.13
31357;BME280;60001;48.404;11.738;2023-04-01T05:06:42;95086.41;;;8.09;72.11
31357;BME280;60001;48.404;11.738;2023-04-01T05:08:14;95090.59;;;8.10;72.73
31357;BME280;60001;48.404;11.738;2023-04-01T05:09:45;95089.03;;;8.04;72.39
31357;BME280;60001;48.404;11.738;2023-04-01T05:11:19;95101.38;;;8.08;72.84
31357;BME280;60001;48.404;11.738;2023-04-01T05:12:52;95101.63;;;8.12;72.76
31357;BME280;60001;48.404;11.738;2023-04-01T05:14:24;95095.31;;;8.18;72.57
31357;BME280;60001;48.404;11.738;2023-04-01T05:15:55;95096.38;;;8.17;73.13
31357;BME280;60001;48.404;11.738;2023-04-01T05:17:26;95094.00;;;8.20;72.92
31357;BME280;60001;48.404;11.738;2023-04-01T05:18:58;95108.47;;;8.23;73.33
31357;BME280;60001;48.404;11.738;2023-04-01T05:20:30;95094.53;;;8.22;73.09
31357;BME280;60001;48.404;11.738;2023-04-01T05:22:01;95095.03;;;8.24;73.06
31357;BME280;60001;48.404;11.738;2023-04-01T05:23:33;95096.09;;;8.29;72.97
31357;BME280;60001;48.404;11.738;2023-04-01T05:25:06;95097.41;;;8.26;72.83
31357;BME280;60001;48.404;11.738;2023-04-01T05:26:37;95095.03;;;8.19;72.40
31357;BME280;60001;48.404;11.738;2023-04-01T05:28:10;95100.06;;;8.11;73.01
31357;BME280;60001;48.404;11.738;2023-04-01T05:29:42;95093.47;;;8.18;73.15
31357;BME280;60001;48.404;11.738;2023-04-01T05:31:14;95091.09;;;8.27;72.93
31357;BME280;60001;48.404;11.738;2023-04-01T05:32:46;95088.22;;;8.29;72.61
31357;BME280;60001;48.404;11.738;2023-04-01T05:34:16;95095.03;;;8.40;72.96
31357;BME280;60001;48.404;11.738;2023-04-01T05:35:48;95100.84;;;8.37;72.14
31357;BME280;60001;48.404;11.738;2023-04-01T05:37:20;95095.31;;;8.38;73.06
31357;BME280;60001;48.404;11.738;2023-04-01T05:38:54;95090.06;;;8.43;73.06
31357;BME280;60001;48.404;11.738;2023-04-01T05:40:27;95097.66;;;8.50;72.80
31357;BME280;60001;48.404;11.738;2023-04-01T05:41:59;95081.09;;;8.44;72.67
31357;BME280;60001;48.404;11.738;2023-04-01T05:43:32;95096.31;;;8.63;72.86
31357;BME280;60001;48.404;11.738;2023-04-01T05:45:04;95099.47;;;8.60;72.01
31357;BME280;60001;48.404;11.738;2023-04-01T05:46:36;95096.59;;;8.56;71.39
31357;BME280;60001;48.404;11.738;2023-04-01T05:48:07;95101.31;;;8.64;71.95
31357;BME280;60001;48.404;11.738;2023-04-01T05:49:39;95096.03;;;8.69;72.34
31357;BME280;60001;48.404;11.738;2023-04-01T05:51:12;95079.97;;;8.66;71.88
31357;BME280;60001;48.404;11.738;2023-04-01T05:52:44;95102.56;;;8.77;71.66
31357;BME280;60001;48.404;11.738;2023-04-01T05:54:16;95097.28;;;8.82;71.58
31357;BME280;60001;48.404;11.738;2023-04-01T05:55:47;95091.75;;;8.84;71.17
31357;BME280;60001;48.404;11.738;2023-04-01T05:57:19;95092.50;;;8.89;70.68
31357;BME280;60001;48.404;11.738;2023-04-01T05:58:54;95092.78;;;8.93;71.19
31357;BME280;60001;48.404;11.738;2023-04-01T06:00:25;95092.78;;;8.93;70.77
31357;BME280;60001;48.404;11.738;2023-04-01T06:01:57;95095.13;;;8.99;70.76
31357;BME280;60001;48.404;11.738;2023-04-01T06:03:29;95096.41;;;8.97;69.93
31357;BME280;60001;48.404;11.738;2023-04-01T06:05:11;95095.09;;;9.04;70.44
31357;BME280;60001;48.404;11.738;2023-04-01T06:06:44;95088.19;;;9.14;70.71
31357;BME280;60001;48.404;11.738;2023-04-01T06:08:17;95081.59;;;9.16;70.59
31357;BME280;60001;48.404;11.738;2023-04-01T06:09:49;95094.72;;;9.26;69.84
31357;BME280;60001;48.404;11.738;2023-04-01T06:11:32;95089.66;;;9.30;69.64
31357;BME280;60001;48.404;11.738;2023-04-01T06:13:12;95089.66;;;9.35;68.73
31357;BME280;60001;48.404;11.738;2023-04-01T06:15:05;95097.84;;;9.33;68.84
31357;BME280;60001;48.404;11.738;2023-04-01T06:16:55;95101.72;;;9.41;68.24
31357;BME280;60001;48.404;11.738;2023-04-01T06:18:46;95095.47;;;9.32;67.72
31357;BME280;60001;48.404;11.738;2023-04-01T06:20:28;95098.91;;;9.27;68.05
31357;BME280;60001;48.404;11.738;2023-04-01T06:22:31;95102.56;;;9.31;68.31
31357;BME280;60001;48.404;11.738;2023-04-01T06:26:28;95101.91;;;9.55;68.40
31357;BME280;60001;48.404;11.738;2023-04-01T06:30:32;95098.22;;;9.56;67.61
31357;BME280;60001;48.404;11.738;2023-04-01T06:32:27;95093.72;;;9.56;67.42
31357;BME280;60001;48.404;11.738;2023-04-01T06:34:21;95095.28;;;9.63;67.70
31357;BME280;60001;48.404;11.738;2023-04-01T06:36:11;95101.81;;;9.70;68.15
31357;BME280;60001;48.404;11.738;2023-04-01T06:38:04;95103.84;;;9.78;67.08
31357;BME280;60001;48.404;11.738;2023-04-01T06:40:02;95096.19;;;9.82;66.39
31357;BME280;60001;48.404;11.738;2023-04-01T06:42:05;95109.47;;;9.67;65.62
31357;BME280;60001;48.404;11.738;2023-04-01T06:43:54;95102.53;;;9.81;65.59
31357;BME280;60001;48.404;11.738;2023-04-01T06:45:40;95099.81;;;9.86;66.29
31357;BME280;60001;48.404;11.738;2023-04-01T06:47:27;95098.22;;;9.90;65.50
31357;BME280;60001;48.404;11.738;2023-04-01T06:49:29;95097.59;;;10.03;65.36
31357;BME280;60001;48.404;11.738;2023-04-01T06:51:17;95102.22;;;10.16;65.00
31357;BME280;60001;48.404;11.738;2023-04-01T06:53:01;95103.50;;;10.19;64.10
31357;BME280;60001;48.404;11.738;2023-04-01T06:54:38;95103.53;;;10.14;63.76
31357;BME280;60001;48.404;11.738;2023-04-01T06:56:16;95098.59;;;10.07;63.98
31357;BME280;60001;48.404;11.738;2023-04-01T06:57:52;95101.16;;;10.18;64.41
31357;BME280;60001;48.404;11.738;2023-04-01T06:59:28;95106.28;;;10.04;64.33
31357;BME280;60001;48.404;11.738;2023-04-01T07:01:07;95108.59;;;10.10;64.46
31357;BME280;60001;48.404;11.738;2023-04-01T07:02:45;95103.00;;;10.17;64.65
31357;BME280;60001;48.404;11.738;2023-04-01T07:04:29;95107.38;;;10.32;64.46
31357;BME280;60001;48.404;11.738;2023-04-01T07:06:04;95108.31;;;10.46;63.98
31357;BME280;60001;48.404;11.738;2023-04-01T07:07:41;95118.28;;;10.49;61.72
31357;BME280;60001;48.404;11.738;2023-04-01T07:09:19;95107.63;;;10.59;62.43
31357;BME280;60001;48.404;11.738;2023-04-01T07:10:56;95106.31;;;10.57;62.75
31357;BME280;60001;48.404;11.738;2023-04-01T07:12:40;95108.38;;;10.65;63.28
31357;BME280;60001;48.404;11.738;2023-04-01T07:14:20;95105.31;;;10.77;63.04
31357;BME280;60001;48.404;11.738;2023-04-01T07:16:06;95102.09;;;10.85;62.53
31357;BME280;60001;48.404;11.738;2023-04-01T07:17:43;95112.47;;;10.76;59.99
31357;BME280;60001;48.404;11.738;2023-04-01T07:19:22;95106.84;;;10.83;60.81
31357;BME280;60001;48.404;11.738;2023-04-01T07:20:58;95112.03;;;10.93;60.21
31357;BME280;60001;48.404;11.738;2023-04-01T07:22:34;95106.84;;;11.25;60.83
31357;BME280;60001;48.404;11.738;2023-04-01T07:24:16;95108.84;;;11.52;60.19
31357;BME280;60001;48.404;11.738;2023-04-01T07:25:53;95105.56;;;11.61;58.62
31357;BME280;60001;48.404;11.738;2023-04-01T07:27:26;95099.22;;;11.62;58.07
31357;BME280;60001;48.404;11.738;2023-04-01T07:28:58;95107.00;;;11.53;57.06
31357;BME280;60001;48.404;11.738;2023-04-01T07:30:43;95101.81;;;11.48;57.32
31357;BME280;60001;48.404;11.738;2023-04-01T07:32:31;95095.28;;;11.40;56.95
31357;BME280;60001;48.404;11.738;2023-04-01T07:34:12;95094.28;;;11.36;57.94
31357;BME280;60001;48.404;11.738;2023-04-01T07:35:56;95105.06;;;11.21;57.42
31357;BME280;60001;48.404;11.738;2023-04-01T07:37:43;95100.84;;;11.20;58.08
31357;BME280;60001;48.404;11.738;2023-04-01T07:39:30;95114.75;;;11.25;58.67
31357;BME280;60001;48.404;11.738;2023-04-01T07:41:15;95110.94;;;11.37;59.50
31357;BME280;60001;48.404;11.738;2023-04-01T07:43:14;95102.06;;;11.28;56.81
31357;BME280;60001;48.404;11.738;2023-04-01T07:44:58;95117.56;;;11.15;55.79
31357;BME280;60001;48.404;11.738;2023-04-01T07:46:48;95107.34;;;11.28;56.80
31357;BME280;60001;48.404;11.738;2023-04-01T07:48:33;95103.59;;;11.34;57.30
31357;BME280;60001;48.404;11.738;2023-04-01T07:50:17;95112.34;;;11.29;57.27
31357;BME280;60001;48.404;11.738;2023-04-01T07:51:59;95105.50;;;11.28;56.99
31357;BME280;60001;48.404;11.738;2023-04-01T07:53:37;95105.84;;;11.21;56.95
31357;BME280;60001;48.404;11.738;2023-04-01T07:55:18;95108.25;;;11.18;57.75
31357;BME280;60001;48.404;11.738;2023-04-01T07:57:00;95111.50;;;11.34;57.22
31357;BME280;60001;48.404;11.738;2023-04-01T07:58:46;95125.72;;;11.38;57.30
31357;BME280;60001;48.404;11.738;2023-04-01T08:00:24;95114.78;;;11.44;56.30
31357;BME280;60001;48.404;11.738;2023-04-01T08:02:09;95116.06;;;11.28;56.08
31357;BME280;60001;48.404;11.738;2023-04-01T08:04:02;95120.84;;;11.26;56.45
31357;BME280;60001;48.404;11.738;2023-04-01T08:05:47;95122.25;;;11.18;56.67
31357;BME280;60001;48.404;11.738;2023-04-01T08:07:25;95124.69;;;11.15;56.94
31357;BME280;60001;48.404;11.738;2023-04-01T08:09:10;95116.03;;;11.09;58.05
31357;BME280;60001;48.404;11.738;2023-04-01T08:10:52;95114.47;;;11.08;57.88
31357;BME280;60001;48.404;11.738;2023-04-01T08:12:38;95111.97;;;11.17;57.16
31357;BME280;60001;48.404;11.738;2023-04-01T08:14:21;95120.97;;;11.16;57.81
31357;BME280;60001;48.404;11.738;2023-04-01T08:16:06;95115.84;;;11.24;58.27
31357;BME280;60001;48.404;11.738;2023-04-01T08:17:49;95112.22;;;11.20;58.12
31357;BME280;60001;48.404;11.738;2023-04-01T08:19:43;95117.25;;;11.17;57.53
31357;BME280;60001;48.404;11.738;2023-04-01T08:21:23;95105.06;;;11.21;57.56
31357;BME280;60001;48.404;11.738;2023-04-01T08:23:00;95105.72;;;11.13;57.23
31357;BME280;60001;48.404;11.738;2023-04-01T08:24:40;95111.25;;;11.11;56.37
31357;BME280;60001;48.404;11.738;2023-04-01T08:26:23;95120.69;;;11.17;56.76
31357;BME280;60001;48.404;11.738;2023-04-01T08:28:03;95121.63;;;11.08;56.93
31357;BME280;60001;48.404;11.738;2023-04-01T08:29:48;95109.47;;;11.25;57.74
31357;BME280;60001;48.404;11.738;2023-04-01T08:31:29;95111.34;;;11.44;57.15
31357;BME280;60001;48.404;11.738;2023-04-01T08:33:11;95108.00;;;11.38;55.52
31357;BME280;60001;48.404;11.738;2023-04-01T08:34:57;95110.28;;;11.45;56.08
31357;BME280;60001;48.404;11.738;2023-04-01T08:36:36;95108.56;;;11.35;56.00